Wekiva Springs, Florida
Current Conditions -  °F | °C
As of 5:53 PM on Tuesday 25 Nov 2014 (Local Time) from KORL Reporting Station
Light Rain Light Rain  
Wind Chill: 70°   Ceiling: 5000
Heat Index: 70°   Visibility: 10mi
Dew Point: 68°   Wind: 9mph
Humidity: 94%   Direction: 350°N
Pressure: 29.92"   Gusts: NA
Location:  28.7°N, 81.42°W
Report Text: KORL 252253Z 35008KT 10SM -RA SCT019 BKN050 OVC065 21/20 A2992
Loading
Personal Weather Stations






























Interactive Weather Map New forecast layout! Learn more

10-Day Weather Forecast

Advertisements
Track Severe Weather on mobile